Inversion Research: Below Escarpment

*Note: All times are displayed in the local standard time of the station location.
**Rain - Equipment is designed to accurately record liquid precipitation; under conditions when precipitation is not in liquid form, the data displayed may not properly reflect rainfall values.

Date Max Temp
(°C)
Min Temp
(°C)
Avg Temp
(°C)
Rain (mm) Avg RH (%)
Tue, Oct 15, 2019 16.3 2.4 9.3 - 82.0
Mon, Oct 14, 2019 12.4 2.6 8.9 - 77.7
Sun, Oct 13, 2019 18.9 2.3 11.3 - 71.1
Sat, Oct 12, 2019 15.9 2.7 11.5 - 83.4
Fri, Oct 11, 2019 23.1 5.3 13.8 - 75.5
Thu, Oct 10, 2019 18.0 3.5 11.0 - 87.3
Wed, Oct 09, 2019 18.3 2.8 10.3 - 89.1
DateTime Avg Temp (°C) Rain (mm) RH (%)
Wed, Oct 16, 2019 01:00 10.0 - 87.7
Wed, Oct 16, 2019 00:00 9.0 - 93.1
Tue, Oct 15, 2019 23:00 8.1 - 97.0
Tue, Oct 15, 2019 22:00 9.7 - 87.3
Tue, Oct 15, 2019 21:00 10.5 - 83.1
Tue, Oct 15, 2019 20:00 10.8 - 83.4
Tue, Oct 15, 2019 19:00 12.3 - 79.0
Tue, Oct 15, 2019 18:00 14.8 - 66.1
Tue, Oct 15, 2019 17:00 15.9 - 59.1
Tue, Oct 15, 2019 16:00 16.0 - 58.0
Tue, Oct 15, 2019 15:00 15.5 - 60.2
Tue, Oct 15, 2019 14:00 15.2 - 60.7
Tue, Oct 15, 2019 13:00 14.5 - 63.6
Tue, Oct 15, 2019 12:00 13.1 - 68.1
Tue, Oct 15, 2019 11:00 11.7 - 65.7
Tue, Oct 15, 2019 10:00 9.9 - 75.9
Tue, Oct 15, 2019 09:00 5.9 - 92.4
Tue, Oct 15, 2019 08:00 3.8 - 97.4
Tue, Oct 15, 2019 07:00 3.7 - 98.6
Tue, Oct 15, 2019 06:00 2.8 - 99.9
Tue, Oct 15, 2019 05:00 3.4 - 98.9
Tue, Oct 15, 2019 04:00 3.6 - 97.3
Tue, Oct 15, 2019 03:00 4.3 - 93.8
Tue, Oct 15, 2019 02:00 5.3 - 90.3
Tue, Oct 15, 2019 01:00 3.3 - 98.7
Tue, Oct 15, 2019 00:00 3.3 - 95.9
Mon, Oct 14, 2019 23:00 4.4 - 89.2
Mon, Oct 14, 2019 22:00 5.2 - 85.1
Mon, Oct 14, 2019 21:00 5.3 - 85.9
Mon, Oct 14, 2019 20:00 6.8 - 75.3
Mon, Oct 14, 2019 19:00 9.2 - 61.6
Mon, Oct 14, 2019 18:00 11.3 - 53.2
Mon, Oct 14, 2019 17:00 12.2 - 50.2
Mon, Oct 14, 2019 16:00 11.8 - 55.0
Mon, Oct 14, 2019 15:00 11.7 - 54.1
Mon, Oct 14, 2019 14:00 11.3 - 57.0
Mon, Oct 14, 2019 13:00 11.2 - 58.7
Mon, Oct 14, 2019 12:00 10.2 - 64.1
Mon, Oct 14, 2019 11:00 9.3 - 72.2
Mon, Oct 14, 2019 10:00 8.8 - 80.0
Mon, Oct 14, 2019 09:00 8.5 - 82.5
Mon, Oct 14, 2019 08:00 8.6 - 84.6
Mon, Oct 14, 2019 07:00 8.8 - 86.4
Mon, Oct 14, 2019 06:00 8.9 - 87.9
Mon, Oct 14, 2019 05:00 8.9 - 95.6
Mon, Oct 14, 2019 04:00 9.2 - 99.9
Mon, Oct 14, 2019 03:00 9.0 - 99.9
Mon, Oct 14, 2019 02:00 9.4 - 99.8


asterix Register now to access more data! asterix